If you wish to contribute or participate in the discussions about articles you are invited to join SKYbrary as a registered user

 Actions

Sohar Airport

From SKYbrary Wiki

OOSH
Airport
ICAO: OOSH – IATA: OHS
Summary
Name Sohar Airport
Region Middle East
Territory Oman OM.gif
Location Sohar, Al Batinah
Serving wilayat of Sohar
Coordinates 24° 23' 24.26" N, 56° 37' 13.90" E
Runways
Designator Length Width Surface ROPS


METAR
Observation OOSH 231350Z AUTO 21007KT //// 36/20 Q1007
Station Sohar Majis
Date/Time 23 April 2019 13:50:00
Wind direction 210°
Wind speed 07 kts
Lowest cloud amount n/a
Temperature 36°C
Dew point 20°C
Humidity 39%
QNH 1007 hPa
Weather condition n/a

Sohar International Airport is an international airport situated in the wilayat of Sohar in Al Batinah Region of Oman.

Climatology

Hot Desert Climate (Köppen climate classification BWh)

Maps

Terrain

Loading map...

Airport Layout

Loading map...


Accidents & Serious Incidents at or in vicinity of OOSH

None on SKYbrary